CheckWX is a tool to help pilots better visualize weather data.  It is not intended as a substitute for an official pre-flight weather briefing.

01:07:48 UTC

EHQE METAR
Hoorn-a Sea
Hoorn-a Sea, The Netherlands
Current

43 mins ago

EHQE 240025Z AUTO 17010KT 9999 NSC 08/03 Q1035 W///H///
Observed
Feb-24 @ 00:25 UTC
Wind
  • 170° at 10 KTS
Visibility
10,000+ meters
Flight Rules
VFR
Cloud Levels
  • Clear skies
Temperature
C / 46°F
Dewpoint
C / 37°F
Humidity
71%
Altimeter
30.56" Hg
Pressure
1034.91 hPa
Previous

1 hour ago

EHQE 232355Z AUTO 17012KT 9999 NSC 08/04 Q1035 W///H///
Observed
Feb-23 @ 23:55 UTC
Wind
  • 170° at 12 KTS
Visibility
10,000+ meters
Flight Rules
VFR
Cloud Levels
  • Clear skies
Temperature
C / 46°F
Dewpoint
C / 39°F
Humidity
76%
Altimeter
30.56" Hg
Pressure
1034.91 hPa
Previous

2 hours ago

EHQE 232325Z AUTO 17014KT 9999 NSC 08/04 Q1035 W///H///
Observed
Feb-23 @ 23:25 UTC
Wind
  • 170° at 14 KTS
Visibility
10,000+ meters
Flight Rules
VFR
Cloud Levels
  • Clear skies
Temperature
C / 46°F
Dewpoint
C / 39°F
Humidity
76%
Altimeter
30.56" Hg
Pressure
1034.91 hPa